Time;durP1;ratioP1;P1;durP2;ratioP2;P2;SDS_P1;SDS_P2;PMS_P1;PMS_P2;Temp;Humidity;BMP_temperature;BMP_pressure;BME280_temperature;BME280_humidity;BME280_pressure;Samples;Min_cycle;Max_cycle;Signal;HPM_P1;HPM_P2
2022/08/05 00:01:56;;;;;;;6.75;4.43;;;28.00;56.20;;;;;;5008790;28;20160;-72
2022/08/05 00:04:22;;;;;;;6.45;4.07;;;28.00;56.30;;;;;;5010158;28;20116;-72
2022/08/05 00:06:48;;;;;;;5.30;4.25;;;28.00;56.40;;;;;;5010923;28;20034;-72
2022/08/05 00:09:13;;;;;;;6.35;5.00;;;27.90;56.50;;;;;;5011390;28;20034;-73
2022/08/05 00:11:39;;;;;;;7.63;5.03;;;27.90;56.80;;;;;;5011795;28;20021;-72
2022/08/05 00:14:05;;;;;;;5.13;4.25;;;27.90;56.90;;;;;;5010547;28;20125;-73
2022/08/05 00:16:31;;;;;;;6.38;4.40;;;27.80;57.50;;;;;;5011713;28;20048;-73
2022/08/05 00:18:56;;;;;;;6.28;4.80;;;27.80;57.20;;;;;;5010659;28;20372;-72
2022/08/05 00:21:22;;;;;;;5.82;4.47;;;27.70;57.50;;;;;;5011021;28;20477;-73
2022/08/05 00:23:47;;;;;;;7.60;5.10;;;27.70;57.50;;;;;;5011037;28;20022;-73
2022/08/05 00:26:14;;;;;;;6.43;4.47;;;27.70;57.70;;;;;;5008632;28;20099;-71
2022/08/05 00:28:40;;;;;;;5.45;4.40;;;27.60;57.60;;;;;;5010611;28;20030;-72
2022/08/05 00:31:06;;;;;;;8.52;4.72;;;27.60;57.70;;;;;;5008996;28;20026;-72
2022/08/05 00:33:33;;;;;;;6.72;4.28;;;27.50;57.80;;;;;;5010943;28;20033;-72
2022/08/05 00:35:59;;;;;;;6.82;4.50;;;27.50;58.00;;;;;;5010029;28;20108;-71
2022/08/05 00:38:24;;;;;;;5.35;4.45;;;27.50;58.20;;;;;;5009952;28;20465;-71
2022/08/05 00:40:53;;;;;;;6.45;4.68;;;27.40;58.20;;;;;;5011297;28;20029;-72
2022/08/05 00:43:19;;;;;;;5.25;4.45;;;27.40;58.40;;;;;;5007506;28;20596;-71
2022/08/05 00:45:46;;;;;;;5.97;4.18;;;27.40;58.70;;;;;;5010484;28;20034;-73
2022/08/05 00:48:14;;;;;;;4.97;4.35;;;27.30;58.50;;;;;;5009564;28;20030;-73
2022/08/05 00:50:41;;;;;;;6.07;4.38;;;27.30;58.60;;;;;;5010655;28;20069;-73
2022/08/05 00:53:07;;;;;;;6.57;4.82;;;27.30;58.60;;;;;;5010498;28;20076;-73
2022/08/05 00:55:33;;;;;;;4.85;4.22;;;27.20;58.70;;;;;;5011082;28;20037;-73
2022/08/05 00:57:59;;;;;;;6.28;4.72;;;27.20;59.00;;;;;;5008580;28;20022;-73
2022/08/05 01:00:26;;;;;;;10.88;4.75;;;27.20;59.10;;;;;;5011451;28;20030;-73
2022/08/05 01:02:52;;;;;;;6.95;4.55;;;27.20;59.40;;;;;;5006399;28;20021;-73
2022/08/05 01:05:17;;;;;;;11.05;4.80;;;27.20;59.60;;;;;;5009844;28;20038;-73
2022/08/05 01:07:43;;;;;;;4.90;4.28;;;27.10;59.50;;;;;;5008507;28;20069;-73
2022/08/05 01:10:14;;;;;;;5.13;4.50;;;27.10;59.70;;;;;;5011198;28;20371;-73
2022/08/05 01:12:45;;;;;;;17.25;4.97;;;27.10;59.70;;;;;;5008881;28;20061;-73
2022/08/05 01:15:14;;;;;;;5.82;4.45;;;27.00;59.70;;;;;;5011679;28;20026;-72
2022/08/05 01:17:49;;;;;;;6.45;5.20;;;27.00;59.40;;;;;;5011043;28;20036;-72
2022/08/05 01:20:35;;;;;;;7.88;4.70;;;27.00;60.20;;;;;;5013350;28;20073;-72
2022/08/05 01:23:33;;;;;;;6.70;4.72;;;27.00;60.20;;;;;;5012487;28;20030;-73
2022/08/05 01:26:05;;;;;;;6.50;4.60;;;26.90;60.50;;;;;;5014026;28;20032;-73
2022/08/05 01:28:36;;;;;;;5.43;4.72;;;26.90;60.30;;;;;;5013053;28;20117;-72
2022/08/05 01:31:09;;;;;;;7.60;4.90;;;26.90;60.20;;;;;;5013136;28;20065;-72
2022/08/05 01:33:44;;;;;;;6.43;5.28;;;26.90;60.10;;;;;;5013313;28;20026;-72
2022/08/05 01:36:13;;;;;;;7.80;4.85;;;26.80;60.10;;;;;;5014440;28;20042;-73
2022/08/05 01:38:39;;;;;;;6.97;4.78;;;26.80;60.00;;;;;;5012615;28;20492;-72
2022/08/05 01:41:06;;;;;;;7.10;5.20;;;26.80;60.20;;;;;;5013576;28;20038;-71
2022/08/05 01:43:33;;;;;;;7.68;5.90;;;26.80;61.10;;;;;;5012968;28;20026;-72
2022/08/05 01:46:00;;;;;;;7.65;5.00;;;26.70;61.40;;;;;;5013473;28;20026;-72
2022/08/05 01:48:28;;;;;;;4.93;4.43;;;26.70;61.60;;;;;;5013889;28;20087;-71
2022/08/05 01:50:55;;;;;;;7.40;5.40;;;26.70;61.40;;;;;;5023932;28;20033;-72
2022/08/05 01:53:24;;;;;;;5.40;4.50;;;26.60;61.00;;;;;;5012427;28;20026;-72
2022/08/05 01:55:53;;;;;;;6.63;5.68;;;26.60;61.20;;;;;;5014185;28;20046;-72
2022/08/05 01:58:22;;;;;;;7.13;5.50;;;26.60;61.70;;;;;;5012745;28;20061;-71
2022/08/05 02:00:52;;;;;;;6.55;5.20;;;26.50;62.10;;;;;;5011249;28;20524;-73
2022/08/05 02:03:26;;;;;;;7.35;5.30;;;26.40;62.30;;;;;;5012041;28;20040;-73
2022/08/05 02:05:53;;;;;;;;;;;26.40;62.70;;;;;;5013706;28;20049;-71
2022/08/05 02:08:20;;;;;;;7.75;5.20;;;26.40;61.60;;;;;;5012937;28;19943;-71
2022/08/05 02:10:58;;;;;;;6.40;5.00;;;26.20;62.80;;;;;;5013619;28;20040;-72
2022/08/05 02:13:32;;;;;;;8.75;4.90;;;26.20;63.10;;;;;;5011927;28;20033;-71
2022/08/05 02:16:06;;;;;;;6.47;4.88;;;26.20;63.50;;;;;;5013123;28;20042;-71
2022/08/05 02:18:39;;;;;;;9.07;6.10;;;26.10;63.60;;;;;;5010015;28;20504;-71
2022/08/05 02:21:17;;;;;;;10.68;5.65;;;26.10;63.70;;;;;;5011973;28;20293;-70
2022/08/05 02:23:47;;;;;;;5.68;4.93;;;26.00;64.00;;;;;;5012671;28;20030;-71
2022/08/05 02:26:30;;;;;;;7.38;4.65;;;26.00;64.40;;;;;;5012841;28;20083;-70
2022/08/05 02:28:56;;;;;;;7.95;4.53;;;25.90;64.80;;;;;;5010458;28;20037;-71
2022/08/05 02:31:26;;;;;;;7.25;4.85;;;25.90;65.10;;;;;;5013983;28;20036;-72
2022/08/05 02:34:02;;;;;;;5.45;4.18;;;25.80;65.50;;;;;;5011041;28;20061;-72
2022/08/05 02:36:31;;;;;;;7.32;4.63;;;25.80;66.20;;;;;;5012624;28;20053;-71
2022/08/05 02:38:58;;;;;;;7.15;4.55;;;25.70;66.10;;;;;;5011456;28;20036;-71
2022/08/05 02:41:26;;;;;;;5.63;4.53;;;25.60;66.30;;;;;;5012775;28;20088;-71
2022/08/05 02:43:56;;;;;;;6.78;4.82;;;25.60;66.70;;;;;;5011430;28;20026;-72
2022/08/05 02:46:23;;;;;;;6.55;4.35;;;25.50;66.80;;;;;;5012742;28;20537;-71
2022/08/05 02:48:49;;;;;;;5.25;4.57;;;25.50;66.90;;;;;;5012212;28;20092;-71
2022/08/05 02:51:15;;;;;;;7.60;4.88;;;25.50;67.10;;;;;;5010772;28;20332;-71
2022/08/05 02:53:42;;;;;;;8.70;4.72;;;25.40;67.20;;;;;;5009164;28;20033;-72
2022/08/05 02:56:10;;;;;;;7.85;4.47;;;25.40;67.50;;;;;;5013034;28;20038;-71
2022/08/05 02:58:38;;;;;;;7.53;4.93;;;25.30;67.70;;;;;;5011643;28;20105;-71
2022/08/05 03:01:04;;;;;;;6.30;4.50;;;25.30;67.80;;;;;;5012424;28;20069;-73
2022/08/05 03:03:31;;;;;;;6.05;4.50;;;25.30;68.20;;;;;;5011386;28;20037;-72
2022/08/05 03:05:58;;;;;;;10.93;4.70;;;25.20;68.30;;;;;;5010979;28;20049;-72
2022/08/05 03:08:24;;;;;;;8.13;4.85;;;25.20;68.80;;;;;;5011900;28;20037;-72
2022/08/05 03:10:49;;;;;;;5.40;4.82;;;25.10;69.20;;;;;;5000011;28;20040;-72
2022/08/05 03:13:16;;;;;;;6.60;4.40;;;25.10;69.20;;;;;;5003019;28;20096;-71
2022/08/05 03:15:44;;;;;;;5.55;4.30;;;25.10;69.50;;;;;;5011495;28;20046;-71
2022/08/05 03:18:09;;;;;;;6.97;4.72;;;25.00;69.70;;;;;;5009811;28;20774;-72
2022/08/05 03:20:35;;;;;;;5.93;3.97;;;25.00;70.20;;;;;;5011118;28;20026;-73
2022/08/05 03:23:03;;;;;;;6.90;3.92;;;24.90;70.30;;;;;;5010676;28;20029;-71
2022/08/05 03:25:28;;;;;;;5.97;4.15;;;24.90;70.60;;;;;;5011154;28;20026;-70
2022/08/05 03:27:56;;;;;;;6.72;4.63;;;24.80;70.80;;;;;;5011419;28;20041;-71
2022/08/05 03:30:23;;;;;;;6.80;4.68;;;24.90;71.30;;;;;;5010175;28;20536;-72
2022/08/05 03:32:49;;;;;;;6.50;5.22;;;24.90;71.90;;;;;;5011604;28;20036;-72
2022/08/05 03:35:14;;;;;;;5.03;4.13;;;24.80;71.50;;;;;;5010147;28;20029;-71
2022/08/05 03:37:40;;;;;;;5.28;4.30;;;24.80;71.80;;;;;;5010379;28;20040;-71
2022/08/05 03:40:08;;;;;;;6.13;4.25;;;24.80;72.20;;;;;;5011119;28;20489;-73
2022/08/05 03:42:34;;;;;;;6.85;4.85;;;24.70;72.10;;;;;;5011273;28;20040;-72
2022/08/05 03:45:00;;;;;;;6.13;4.47;;;24.80;72.20;;;;;;5012119;28;20426;-72
2022/08/05 03:47:26;;;;;;;5.10;4.55;;;24.70;72.20;;;;;;5011356;28;20041;-70
2022/08/05 03:49:51;;;;;;;9.15;4.90;;;24.80;72.40;;;;;;5010310;28;20022;-71
2022/08/05 03:52:23;;;;;;;7.03;4.43;;;24.80;72.50;;;;;;5010769;28;20061;-71
2022/08/05 03:55:00;;;;;;;5.97;4.60;;;24.80;73.00;;;;;;5011491;28;20022;-72
2022/08/05 03:57:47;;;;;;;6.60;4.95;;;24.80;72.90;;;;;;5011309;28;20384;-72
2022/08/05 04:00:15;;;;;;;5.55;4.30;;;24.80;73.10;;;;;;5009095;28;20030;-72
2022/08/05 04:02:45;;;;;;;5.88;4.53;;;24.80;73.10;;;;;;5002667;28;20642;-72
2022/08/05 04:05:12;;;;;;;6.22;4.30;;;24.80;73.20;;;;;;5011006;28;20145;-72
2022/08/05 04:07:39;;;;;;;5.15;3.95;;;24.80;73.40;;;;;;5007981;28;20202;-71
2022/08/05 04:10:05;;;;;;;7.25;4.50;;;24.90;73.90;;;;;;5011056;28;20032;-72
2022/08/05 04:12:31;;;;;;;6.45;4.20;;;24.90;73.60;;;;;;5010491;28;20389;-72
2022/08/05 04:14:58;;;;;;;7.03;4.63;;;24.90;73.80;;;;;;5011675;28;20026;-72
2022/08/05 04:17:24;;;;;;;9.05;4.75;;;24.90;73.90;;;;;;5010610;28;20044;-72
2022/08/05 04:19:49;;;;;;;6.90;4.07;;;24.90;73.80;;;;;;5011015;28;20030;-71
2022/08/05 04:22:15;;;;;;;6.65;4.25;;;24.90;73.70;;;;;;5010066;28;20034;-72
2022/08/05 04:24:44;;;;;;;6.80;5.03;;;25.00;73.80;;;;;;5011782;28;20157;-71
2022/08/05 04:27:10;;;;;;;6.65;4.40;;;25.00;74.00;;;;;;5010616;28;20044;-72
2022/08/05 04:29:35;;;;;;;6.72;4.40;;;25.00;73.90;;;;;;5011776;28;20030;-72
2022/08/05 04:32:01;;;;;;;7.82;4.30;;;25.10;74.00;;;;;;5009712;28;20021;-72
2022/08/05 04:34:26;;;;;;;4.65;4.15;;;25.10;74.00;;;;;;5011763;28;20473;-72
2022/08/05 04:36:52;;;;;;;5.65;4.85;;;25.20;74.10;;;;;;5008787;28;20069;-71
2022/08/05 04:39:19;;;;;;;5.25;3.90;;;25.20;74.20;;;;;;5011213;28;20033;-70
2022/08/05 04:41:45;;;;;;;5.80;4.13;;;25.30;74.10;;;;;;5011071;28;20093;-72
2022/08/05 04:44:11;;;;;;;5.00;4.50;;;25.30;74.20;;;;;;5011434;28;20026;-71
2022/08/05 04:46:37;;;;;;;6.03;4.40;;;25.30;74.20;;;;;;5011358;28;20080;-72
2022/08/05 04:49:03;;;;;;;5.03;4.22;;;25.30;74.30;;;;;;5009373;28;20041;-72
2022/08/05 04:51:28;;;;;;;6.10;4.22;;;25.30;74.60;;;;;;5013582;28;20026;-71
2022/08/05 04:53:54;;;;;;;5.35;4.22;;;25.30;74.70;;;;;;5014494;28;20050;-72
2022/08/05 04:56:19;;;;;;;8.23;4.25;;;25.40;74.80;;;;;;5015020;28;20088;-72
2022/08/05 04:58:45;;;;;;;5.78;4.18;;;25.50;75.00;;;;;;5013681;28;20022;-72
2022/08/05 05:01:11;;;;;;;6.15;4.28;;;25.50;75.10;;;;;;5004937;28;20096;-72
2022/08/05 05:03:36;;;;;;;5.30;3.97;;;25.50;75.20;;;;;;5006078;28;20113;-72
2022/08/05 05:06:02;;;;;;;5.07;4.28;;;25.60;75.30;;;;;;5013820;28;20050;-72
2022/08/05 05:08:28;;;;;;;5.45;4.28;;;25.60;75.40;;;;;;5013301;28;20045;-72
2022/08/05 05:10:54;;;;;;;7.13;3.78;;;25.60;75.70;;;;;;5014326;28;20370;-72
2022/08/05 05:13:21;;;;;;;8.57;4.63;;;25.50;75.80;;;;;;5012376;28;20072;-72
2022/08/05 05:15:46;;;;;;;5.95;4.25;;;25.50;76.00;;;;;;5013920;28;20456;-72
2022/08/05 05:18:14;;;;;;;7.07;4.60;;;25.50;76.10;;;;;;5013832;28;20018;-72
2022/08/05 05:20:42;;;;;;;5.43;4.38;;;25.50;76.40;;;;;;5012422;28;20026;-72
2022/08/05 05:23:08;;;;;;;5.07;4.13;;;25.50;76.50;;;;;;5013064;28;20026;-72
2022/08/05 05:25:34;;;;;;;6.13;4.30;;;25.50;76.60;;;;;;5014094;28;20033;-72
2022/08/05 05:28:00;;;;;;;5.30;4.60;;;25.60;76.70;;;;;;5013605;28;20022;-71
2022/08/05 05:30:26;;;;;;;5.45;4.13;;;25.60;76.70;;;;;;5014074;28;20416;-72
2022/08/05 05:32:52;;;;;;;6.53;4.45;;;25.70;76.70;;;;;;5013031;28;20026;-72
2022/08/05 05:35:18;;;;;;;5.35;4.75;;;25.70;76.50;;;;;;5013596;28;20033;-71
2022/08/05 05:37:51;;;;;;;4.85;4.05;;;25.70;76.50;;;;;;5013684;28;20041;-72
2022/08/05 05:40:19;;;;;;;6.65;4.30;;;25.80;76.60;;;;;;5014231;28;20030;-72
2022/08/05 05:42:48;;;;;;;4.90;4.20;;;25.80;76.80;;;;;;5013718;28;20125;-72
2022/08/05 05:45:15;;;;;;;6.40;4.68;;;25.80;76.70;;;;;;5012797;28;20033;-71
2022/08/05 05:47:40;;;;;;;6.38;3.65;;;25.90;77.10;;;;;;5012765;28;20022;-71
2022/08/05 05:50:15;;;;;;;6.47;4.13;;;25.90;77.20;;;;;;5013390;28;20040;-72
2022/08/05 05:52:41;;;;;;;6.75;4.20;;;26.00;77.10;;;;;;5012191;28;20033;-72
2022/08/05 05:55:12;;;;;;;6.63;4.90;;;26.00;77.00;;;;;;5013485;28;20030;-72
2022/08/05 05:57:39;;;;;;;6.97;4.85;;;26.00;76.90;;;;;;5013261;28;20050;-71
2022/08/05 06:00:08;;;;;;;7.70;4.70;;;26.10;76.70;;;;;;5012099;28;20036;-71
2022/08/05 06:02:33;;;;;;;5.00;4.50;;;26.10;76.80;;;;;;5005783;28;20057;-71
2022/08/05 06:04:59;;;;;;;7.85;3.97;;;26.10;76.80;;;;;;5012384;28;20532;-72
2022/08/05 06:07:25;;;;;;;6.35;4.10;;;26.00;76.90;;;;;;5013134;28;20121;-71
2022/08/05 06:09:50;;;;;;;6.60;4.35;;;26.00;76.90;;;;;;5013539;28;20496;-72
2022/08/05 06:12:16;;;;;;;5.32;3.90;;;26.10;77.40;;;;;;5012977;28;20028;-72
2022/08/05 06:14:43;;;;;;;8.77;4.57;;;26.10;77.00;;;;;;5012576;28;20026;-71
2022/08/05 06:17:09;;;;;;;8.40;4.60;;;26.10;76.90;;;;;;5011377;28;20048;-72
2022/08/05 06:19:34;;;;;;;6.47;4.53;;;26.20;77.10;;;;;;5013453;28;20054;-72
2022/08/05 06:22:00;;;;;;;6.85;4.57;;;26.20;77.00;;;;;;5011653;28;20069;-71
2022/08/05 06:24:26;;;;;;;5.55;4.30;;;26.20;76.90;;;;;;5013130;28;20098;-72
2022/08/05 06:26:52;;;;;;;7.10;4.45;;;26.30;76.90;;;;;;5012309;28;20477;-71
2022/08/05 06:29:17;;;;;;;5.22;4.03;;;26.30;77.00;;;;;;5011055;28;20393;-71
2022/08/05 06:31:43;;;;;;;6.30;3.58;;;26.30;77.30;;;;;;5012602;28;20531;-71
2022/08/05 06:34:08;;;;;;;5.50;4.13;;;26.30;77.40;;;;;;5012557;28;20477;-70
2022/08/05 06:36:34;;;;;;;7.45;4.22;;;26.30;77.50;;;;;;5011160;28;20044;-70
2022/08/05 06:39:00;;;;;;;6.10;3.28;;;26.30;78.00;;;;;;5011988;28;20038;-70
2022/08/05 06:41:28;;;;;;;6.18;3.55;;;26.20;78.10;;;;;;5012654;28;20029;-70
2022/08/05 06:43:53;;;;;;;6.22;3.35;;;26.20;78.20;;;;;;5012357;28;20484;-71
2022/08/05 06:46:19;;;;;;;8.27;3.33;;;26.20;78.50;;;;;;5012483;28;20053;-71
2022/08/05 06:48:44;;;;;;;5.90;3.58;;;26.40;78.60;;;;;;5010361;28;20048;-71
2022/08/05 06:51:10;;;;;;;5.07;3.17;;;26.50;78.50;;;;;;5011827;28;20045;-71
2022/08/05 06:53:36;;;;;;;5.97;3.50;;;26.70;78.00;;;;;;5011499;28;20022;-71
2022/08/05 06:56:04;;;;;;;3.97;2.90;;;26.70;77.80;;;;;;5011916;28;20451;-70
2022/08/05 06:58:31;;;;;;;6.75;3.00;;;26.70;77.40;;;;;;5012216;28;20034;-71
2022/08/05 07:01:00;;;;;;;6.20;3.00;;;26.80;77.60;;;;;;5004942;28;20037;-70
2022/08/05 07:03:27;;;;;;;5.97;3.90;;;26.90;77.40;;;;;;5004832;28;20030;-70
2022/08/05 07:05:53;;;;;;;4.85;3.20;;;27.00;77.70;;;;;;5010158;28;20085;-71
2022/08/05 07:08:21;;;;;;;4.07;3.13;;;27.10;77.40;;;;;;5011941;28;20109;-70
2022/08/05 07:10:47;;;;;;;4.93;3.45;;;27.10;76.60;;;;;;5012136;28;20034;-70
2022/08/05 07:18:41;;;;;;;3.60;3.00;;;27.20;76.40;;;;;;5009428;28;20041;-72
2022/08/05 07:21:06;;;;;;;4.05;2.90;;;27.30;76.50;;;;;;5008449;28;20030;-71
2022/08/05 07:23:33;;;;;;;4.20;2.72;;;27.40;76.10;;;;;;5003758;28;20026;-72
2022/08/05 07:25:59;;;;;;;3.95;2.85;;;27.50;75.90;;;;;;5010154;28;20034;-70
2022/08/05 07:28:25;;;;;;;4.32;2.80;;;27.60;75.70;;;;;;5009965;28;20113;-69
2022/08/05 07:30:51;;;;;;;5.63;2.92;;;27.70;75.60;;;;;;4998222;28;20367;-70
2022/08/05 07:33:19;;;;;;;4.25;2.50;;;27.90;75.20;;;;;;5009272;28;20045;-68
2022/08/05 07:35:45;;;;;;;5.20;2.70;;;27.90;75.10;;;;;;5011381;28;20445;-69
2022/08/05 07:38:11;;;;;;;5.72;3.03;;;27.90;74.70;;;;;;5007836;28;20076;-69
2022/08/05 07:40:36;;;;;;;7.10;3.00;;;27.90;74.50;;;;;;5007962;28;20465;-70
2022/08/05 07:43:02;;;;;;;6.18;3.17;;;27.90;74.20;;;;;;5010471;28;20029;-70
2022/08/05 07:45:28;;;;;;;7.80;3.53;;;27.90;74.10;;;;;;5011493;28;20033;-70
2022/08/05 07:47:53;;;;;;;8.40;3.35;;;27.80;74.10;;;;;;5010340;28;20030;-70
2022/08/05 07:50:19;;;;;;;4.20;2.80;;;27.70;74.50;;;;;;5011375;28;20469;-71
2022/08/05 07:52:45;;;;;;;6.22;3.10;;;27.60;74.40;;;;;;5008802;28;20092;-72
2022/08/05 07:55:11;;;;;;;7.25;3.25;;;27.60;74.70;;;;;;5006805;28;20046;-71
2022/08/05 07:57:37;;;;;;;5.10;2.88;;;27.50;75.00;;;;;;5009575;28;20096;-71
2022/08/05 08:00:07;;;;;;;4.00;2.90;;;27.50;75.00;;;;;;5011139;28;20026;-72
2022/08/05 08:02:33;;;;;;;5.30;3.17;;;27.50;75.30;;;;;;5008662;28;20490;-71
2022/08/05 08:04:59;;;;;;;8.02;3.30;;;27.40;75.30;;;;;;5010989;28;20121;-71
2022/08/05 08:07:25;;;;;;;5.55;2.78;;;27.30;75.30;;;;;;5008979;28;20069;-71
2022/08/05 08:09:51;;;;;;;5.80;2.85;;;27.30;75.20;;;;;;5009444;28;20053;-71
2022/08/05 08:12:17;;;;;;;5.07;2.78;;;27.20;74.80;;;;;;5009108;28;20034;-70
2022/08/05 08:14:43;;;;;;;4.07;2.97;;;27.10;74.80;;;;;;5008614;28;20121;-71
2022/08/05 08:17:11;;;;;;;3.25;2.50;;;27.10;75.30;;;;;;5010138;28;20157;-70
2022/08/05 08:19:40;;;;;;;5.95;3.17;;;27.10;75.60;;;;;;5009191;28;20117;-70
2022/08/05 08:22:06;;;;;;;6.13;3.03;;;27.00;75.70;;;;;;5007160;28;20026;-72
2022/08/05 08:24:33;;;;;;;4.05;2.60;;;26.90;75.90;;;;;;5012694;28;20502;-71
2022/08/05 08:26:58;;;;;;;6.72;3.03;;;26.90;76.50;;;;;;5012558;28;20030;-71
2022/08/05 08:29:24;;;;;;;4.63;2.80;;;26.90;76.90;;;;;;5014745;28;20104;-70
2022/08/05 08:31:50;;;;;;;4.40;2.70;;;26.90;76.60;;;;;;5012353;28;20358;-71
2022/08/05 08:34:17;;;;;;;4.68;2.67;;;26.80;76.40;;;;;;5014073;28;20030;-71
2022/08/05 08:36:43;;;;;;;3.80;2.50;;;26.80;76.40;;;;;;5013121;28;20096;-72
2022/08/05 08:39:08;;;;;;;4.22;2.42;;;26.80;75.70;;;;;;5013546;28;20360;-71
2022/08/05 08:41:36;;;;;;;5.53;2.65;;;26.70;76.00;;;;;;5012467;28;20041;-71
2022/08/05 08:44:03;;;;;;;3.65;2.78;;;26.70;76.30;;;;;;5014118;28;20022;-70
2022/08/05 08:46:30;;;;;;;5.28;2.65;;;26.70;76.10;;;;;;5012038;28;20030;-70
2022/08/05 08:48:57;;;;;;;4.63;2.63;;;26.60;76.00;;;;;;5013340;28;20048;-70
2022/08/05 08:51:26;;;;;;;4.78;2.80;;;26.60;76.10;;;;;;5021634;28;20029;-71
2022/08/05 08:53:52;;;;;;;5.03;2.40;;;26.60;76.30;;;;;;5017579;28;20030;-72
2022/08/05 08:56:19;;;;;;;3.78;2.30;;;26.70;75.70;;;;;;5013065;28;20038;-72
2022/08/05 08:58:45;;;;;;;4.43;2.70;;;26.60;75.60;;;;;;5012788;28;20038;-71
2022/08/05 09:01:12;;;;;;;3.25;2.50;;;26.60;75.80;;;;;;5012193;28;20034;-72
2022/08/05 09:03:40;;;;;;;4.75;2.53;;;26.60;76.10;;;;;;5010773;28;20034;-71
2022/08/05 09:06:05;;;;;;;4.75;2.80;;;26.60;77.60;;;;;;5013972;28;20142;-72
2022/08/05 09:08:31;;;;;;;4.00;3.03;;;26.60;77.60;;;;;;5011326;28;20101;-71
2022/08/05 09:10:57;;;;;;;4.22;2.35;;;26.60;77.70;;;;;;5014333;28;20121;-71
2022/08/05 09:13:23;;;;;;;3.03;2.33;;;26.60;77.50;;;;;;5013154;28;20037;-71
2022/08/05 09:15:49;;;;;;;3.60;2.80;;;26.50;77.90;;;;;;5012838;28;20034;-71
2022/08/05 09:18:16;;;;;;;3.63;2.40;;;26.50;77.90;;;;;;5011564;28;20496;-71
2022/08/05 09:20:43;;;;;;;3.33;2.63;;;26.50;78.30;;;;;;5014477;28;20033;-72
2022/08/05 09:23:11;;;;;;;5.22;2.70;;;26.40;78.80;;;;;;5012375;28;20040;-72
2022/08/05 09:25:40;;;;;;;3.58;2.53;;;26.40;78.80;;;;;;5014221;28;20037;-71
2022/08/05 09:28:15;;;;;;;6.32;2.53;;;26.50;78.50;;;;;;5012651;28;20030;-71
2022/08/05 09:31:03;;;;;;;3.53;2.58;;;26.50;78.40;;;;;;5013863;28;20091;-72
2022/08/05 09:33:30;;;;;;;4.22;2.45;;;26.50;78.50;;;;;;5012781;28;20030;-72
2022/08/05 09:35:59;;;;;;;3.30;2.40;;;26.60;78.40;;;;;;5012339;28;20029;-72
2022/08/05 09:38:26;;;;;;;3.38;2.42;;;26.60;78.10;;;;;;5011313;28;20050;-72
2022/08/05 09:40:53;;;;;;;5.10;3.35;;;26.60;77.90;;;;;;5013438;28;20033;-72
2022/08/05 09:43:38;;;;;;;5.03;2.70;;;26.80;78.00;;;;;;5012202;28;20065;-72
2022/08/05 09:46:10;;;;;;;5.40;2.30;;;26.80;77.70;;;;;;5014272;28;20037;-72
2022/08/05 09:48:37;;;;;;;5.05;2.80;;;26.90;77.30;;;;;;5010757;28;20030;-72
2022/08/05 09:51:05;;;;;;;2.90;2.25;;;26.90;78.20;;;;;;5013391;28;20025;-73
2022/08/05 09:53:47;;;;;;;6.05;2.60;;;26.90;77.90;;;;;;5010788;28;20440;-72
2022/08/05 09:56:13;;;;;;;7.05;2.90;;;27.00;77.90;;;;;;5013111;28;20477;-71
2022/08/05 09:58:38;;;;;;;2.85;2.10;;;27.00;77.50;;;;;;5011243;28;20100;-72
2022/08/05 10:01:05;;;;;;;5.18;3.05;;;26.90;77.40;;;;;;5009228;28;20060;-72
2022/08/05 10:03:32;;;;;;;4.00;2.53;;;26.80;77.30;;;;;;5009095;28;20440;-72
2022/08/05 10:06:05;;;;;;;5.32;2.42;;;26.70;77.60;;;;;;4996795;28;20045;-72
2022/08/05 10:08:33;;;;;;;4.63;2.50;;;26.70;77.70;;;;;;5010876;28;20330;-72
2022/08/05 10:11:03;;;;;;;3.60;2.53;;;26.60;78.50;;;;;;5013273;28;20513;-72
2022/08/05 10:13:37;;;;;;;4.65;2.70;;;26.50;78.50;;;;;;5011440;28;20026;-72
2022/08/05 10:16:05;;;;;;;6.50;3.08;;;26.40;79.10;;;;;;5013030;28;20540;-73
2022/08/05 10:18:33;;;;;;;4.32;2.75;;;26.40;80.20;;;;;;5009106;28;20026;-73
2022/08/05 10:21:03;;;;;;;5.15;2.42;;;26.40;81.20;;;;;;5012567;28;20026;-73
2022/08/05 10:23:32;;;;;;;5.97;2.90;;;26.30;80.90;;;;;;5007894;28;20034;-72
2022/08/05 10:26:02;;;;;;;4.30;2.65;;;26.30;81.80;;;;;;5012845;28;20543;-72
2022/08/05 10:28:29;;;;;;;4.22;2.90;;;26.30;82.70;;;;;;5010511;28;20030;-72
2022/08/05 10:30:55;;;;;;;4.18;2.35;;;26.50;83.40;;;;;;5009541;28;20123;-72
2022/08/05 10:33:22;;;;;;;5.43;3.35;;;26.50;83.20;;;;;;5006614;28;20026;-72
2022/08/05 10:35:52;;;;;;;5.18;2.95;;;26.50;82.10;;;;;;5011558;28;20030;-72
2022/08/05 10:38:20;;;;;;;7.32;3.17;;;26.60;83.20;;;;;;5007399;28;20041;-72
2022/08/05 10:41:00;;;;;;;8.13;2.90;;;26.60;83.60;;;;;;5011086;28;20504;-72
2022/08/05 10:43:45;;;;;;;6.22;2.78;;;26.60;83.90;;;;;;5001367;28;20034;-71
2022/08/05 10:46:14;;;;;;;4.88;3.03;;;26.60;84.00;;;;;;4995399;28;20508;-71
2022/08/05 10:48:45;;;;;;;7.40;3.08;;;26.60;84.10;;;;;;5008945;28;20103;-72
2022/08/05 10:51:13;;;;;;;4.05;2.85;;;26.60;85.00;;;;;;5012195;28;20389;-73
2022/08/05 10:53:41;;;;;;;4.72;3.47;;;26.60;85.40;;;;;;5011468;28;20421;-72
2022/08/05 10:56:18;;;;;;;5.43;3.03;;;26.60;85.30;;;;;;5012027;28;20026;-72
2022/08/05 10:58:53;;;;;;;4.50;3.15;;;26.60;84.90;;;;;;5008383;28;20033;-75
2022/08/05 11:01:38;;;;;;;5.18;2.90;;;26.60;85.00;;;;;;5005043;28;20611;-72
2022/08/05 11:04:10;;;;;;;6.63;3.22;;;26.70;85.60;;;;;;5009531;28;20389;-72
2022/08/05 11:07:05;;;;;;;3.67;2.70;;;26.60;86.30;;;;;;5011690;28;20374;-72
2022/08/05 11:09:56;;;;;;;3.33;2.67;;;26.70;85.50;;;;;;5020531;28;20076;-72
2022/08/05 11:12:42;;;;;;;4.80;2.60;;;26.70;85.80;;;;;;5010937;28;20033;-72
2022/08/05 11:15:09;;;;;;;5.88;3.15;;;26.70;84.40;;;;;;5009215;28;20038;-73
2022/08/05 11:17:37;;;;;;;3.83;2.60;;;26.70;83.50;;;;;;5011076;28;20030;-73
2022/08/05 11:20:27;;;;;;;4.70;2.63;;;26.80;84.30;;;;;;5009545;28;20095;-73
2022/08/05 11:22:53;;;;;;;5.70;3.17;;;26.90;82.90;;;;;;5013650;28;20044;-74
2022/08/05 11:25:42;;;;;;;5.35;2.70;;;27.00;83.70;;;;;;5011488;28;20030;-73
2022/08/05 11:28:11;;;;;;;4.75;2.85;;;27.10;83.10;;;;;;5010425;28;20065;-73
2022/08/05 11:30:55;;;;;;;4.18;2.30;;;27.20;83.60;;;;;;5011480;28;20030;-73
2022/08/05 11:33:25;;;;;;;;;;;27.20;80.70;;;;;;5010151;28;20088;-72
2022/08/05 11:35:56;;;;;;;5.50;2.72;;;27.30;81.20;;;;;;5012220;28;20134;-74
2022/08/05 11:38:40;;;;;;;4.40;2.10;;;27.40;81.10;;;;;;5018417;28;20077;-73
2022/08/05 11:41:23;;;;;;;5.32;3.15;;;27.30;78.50;;;;;;5006872;28;20125;-73
2022/08/05 11:43:54;;;;;;;4.25;2.45;;;27.30;78.30;;;;;;5011502;28;20062;-70
2022/08/05 11:46:34;;;;;;;3.78;2.50;;;27.30;78.20;;;;;;5013202;28;20033;-67
2022/08/05 11:49:01;;;;;;;4.70;2.70;;;27.40;78.60;;;;;;5009063;28;20061;-67
2022/08/05 11:51:28;;;;;;;3.67;2.45;;;27.40;78.50;;;;;;4993643;28;20029;-68
2022/08/05 11:53:55;;;;;;;3.38;2.42;;;27.50;78.20;;;;;;4980585;28;20092;-67
2022/08/05 11:56:21;;;;;;;4.32;2.40;;;27.60;77.60;;;;;;4993741;28;20142;-67
2022/08/05 11:58:48;;;;;;;4.68;2.58;;;27.60;77.30;;;;;;5003955;28;20025;-68
2022/08/05 12:01:17;;;;;;;3.10;2.50;;;27.70;77.80;;;;;;5000007;28;20030;-68
2022/08/05 12:03:51;;;;;;;4.70;3.08;;;27.80;77.60;;;;;;4991409;28;20080;-68
2022/08/05 12:06:19;;;;;;;3.75;2.70;;;27.90;78.10;;;;;;4990926;28;20073;-69
2022/08/05 12:08:53;;;;;;;5.97;3.17;;;27.90;77.00;;;;;;4990201;28;20032;-68
2022/08/05 12:11:19;;;;;;;;;;;28.00;77.00;;;;;;4997328;28;20030;-69
2022/08/05 12:14:09;;;;;;;3.35;2.53;;;28.00;77.10;;;;;;4996417;28;19914;-68
2022/08/05 12:16:38;;;;;;;4.30;2.70;;;28.00;77.20;;;;;;5000215;28;20049;-68
2022/08/05 12:19:04;;;;;;;4.93;2.90;;;28.00;76.60;;;;;;5001255;28;20156;-68
2022/08/05 12:21:33;;;;;;;3.50;2.67;;;28.10;76.40;;;;;;5001841;28;20104;-68
2022/08/05 12:24:02;;;;;;;5.32;2.83;;;28.20;76.40;;;;;;4998825;28;20030;-68
2022/08/05 12:26:31;;;;;;;3.65;2.67;;;28.40;76.20;;;;;;4999470;28;20030;-68
2022/08/05 12:28:57;;;;;;;4.47;2.72;;;28.40;76.00;;;;;;4998474;28;20182;-68
2022/08/05 12:31:22;;;;;;;3.95;2.40;;;28.50;75.50;;;;;;5000410;28;20125;-69
2022/08/05 12:33:49;;;;;;;4.10;2.85;;;28.60;75.40;;;;;;4999235;28;20073;-68
2022/08/05 12:36:15;;;;;;;4.18;2.90;;;28.70;76.10;;;;;;4998879;28;20484;-68
2022/08/05 12:38:41;;;;;;;5.03;2.70;;;28.80;76.00;;;;;;4996431;28;20065;-69
2022/08/05 12:41:09;;;;;;;3.92;2.90;;;29.00;74.80;;;;;;4999296;28;20054;-68
2022/08/05 12:43:47;;;;;;;3.42;2.83;;;29.10;75.00;;;;;;5011956;28;20394;-67
2022/08/05 12:46:20;;;;;;;3.80;2.75;;;29.20;74.50;;;;;;4998020;28;20091;-68
2022/08/05 12:48:46;;;;;;;3.45;2.70;;;29.30;73.70;;;;;;5000627;28;20030;-68
2022/08/05 12:51:16;;;;;;;5.60;3.00;;;29.40;73.80;;;;;;5001058;28;20381;-68
2022/08/05 12:53:45;;;;;;;5.05;2.83;;;29.60;73.20;;;;;;4999106;28;20026;-68
2022/08/05 12:56:23;;;;;;;5.18;2.90;;;29.60;72.40;;;;;;4999767;28;20052;-68
2022/08/05 12:59:17;;;;;;;4.38;3.10;;;29.60;72.40;;;;;;4996203;28;20575;-67
2022/08/05 13:01:51;;;;;;;6.20;3.80;;;29.70;72.20;;;;;;4999755;28;20033;-67